Time;durP1;ratioP1;P1;durP2;ratioP2;P2;SDS_P1;SDS_P2;PMS_P1;PMS_P2;Temp;Humidity;BMP_temperature;BMP_pressure;BME280_temperature;BME280_humidity;BME280_pressure;Samples;Min_cycle;Max_cycle;Signal;HPM_P1;HPM_P2
2021/12/02 00:01:33;;;;;;;1.80;1.70;;;;;;;;;;5033604;28;20714;-71
2021/12/02 00:03:59;;;;;;;1.95;1.85;;;;;;;;;;5033263;28;20244;-72
2021/12/02 00:06:24;;;;;;;1.73;1.60;;;;;;;;;;5033561;28;20708;-71
2021/12/02 00:08:50;;;;;;;1.58;1.48;;;;;;;;;;5033268;28;20206;-72
2021/12/02 00:11:16;;;;;;;1.50;1.40;;;;;;;;;;5033138;28;20644;-72
2021/12/02 00:16:22;;;;;;;1.10;1.10;;;;;;;;;;5033438;28;20154;-71
2021/12/02 00:21:23;;;;;;;1.27;1.27;;;;;;;;;;5033031;28;20198;-71
2021/12/02 00:23:51;;;;;;;1.30;1.30;;;;;;;;;;5033064;28;20186;-71
2021/12/02 00:26:18;;;;;;;1.92;1.55;;;;;;;;;;5033196;28;20171;-71
2021/12/02 00:28:43;;;;;;;1.45;1.35;;;;;;;;;;5033086;28;20171;-71
2021/12/02 00:31:16;;;;;;;1.63;1.52;;;;;;;;;;5032748;28;20552;-70
2021/12/02 00:33:46;;;;;;;1.73;1.63;;;;;;;;;;5032890;28;20618;-72
2021/12/02 00:36:15;;;;;;;2.50;1.75;;;;;;;;;;5033276;28;20174;-72
2021/12/02 00:38:41;;;;;;;1.85;1.75;;;;;;;;;;5032647;28;20635;-71
2021/12/02 00:41:10;;;;;;;1.58;1.50;;;;;;;;;;5032632;28;20185;-72
2021/12/02 00:43:36;;;;;;;1.17;1.17;;;;;;;;;;5032513;28;20186;-71
2021/12/02 00:46:05;;;;;;;1.17;1.10;;;;;;;;;;5032641;28;20180;-72
2021/12/02 00:48:33;;;;;;;1.27;1.27;;;;;;;;;;5032062;28;20181;-71
2021/12/02 00:50:58;;;;;;;1.33;1.25;;;;;;;;;;5032760;28;20600;-72
2021/12/02 00:53:24;;;;;;;3.70;1.27;;;;;;;;;;5032459;28;20171;-72
2021/12/02 00:55:49;;;;;;;1.38;1.27;;;;;;;;;;5032421;28;20166;-72
2021/12/02 00:58:19;;;;;;;2.10;1.55;;;;;;;;;;5032840;28;20170;-72
2021/12/02 01:00:47;;;;;;;3.10;2.72;;;;;;;;;;5032487;28;20168;-71
2021/12/02 01:03:13;;;;;;;5.45;3.20;;;;;;;;;;5032596;28;20229;-71
2021/12/02 01:05:39;;;;;;;2.95;2.40;;;;;;;;;;5032262;28;20648;-72
2021/12/02 01:08:05;;;;;;;3.22;2.70;;;;;;;;;;5032441;28;20296;-72
2021/12/02 01:10:31;;;;;;;3.35;2.53;;;;;;;;;;5032521;28;20185;-71
2021/12/02 01:12:56;;;;;;;4.20;2.35;;;;;;;;;;5032214;28;20171;-72
2021/12/02 01:15:22;;;;;;;2.42;2.22;;;;;;;;;;5032383;28;20206;-71
2021/12/02 01:17:47;;;;;;;5.15;3.53;;;;;;;;;;5032110;28;20167;-71
2021/12/02 01:20:15;;;;;;;4.20;3.10;;;;;;;;;;5032031;28;20170;-71
2021/12/02 01:22:41;;;;;;;4.35;3.33;;;;;;;;;;5032166;28;20201;-72
2021/12/02 01:25:07;;;;;;;3.15;2.85;;;;;;;;;;5032232;28;20181;-72
2021/12/02 01:27:34;;;;;;;6.07;3.15;;;;;;;;;;5031984;28;20257;-72
2021/12/02 01:30:00;;;;;;;4.20;2.83;;;;;;;;;;5032192;28;20192;-72
2021/12/02 01:32:25;;;;;;;2.55;2.35;;;;;;;;;;5031947;28;20248;-72
2021/12/02 01:34:52;;;;;;;1.92;1.83;;;;;;;;;;5030660;28;20679;-72
2021/12/02 01:37:18;;;;;;;2.30;2.10;;;;;;;;;;5031837;28;20247;-72
2021/12/02 01:39:43;;;;;;;1.80;1.70;;;;;;;;;;5032132;28;20173;-71
2021/12/02 01:42:13;;;;;;;2.30;1.20;;;;;;;;;;5031828;28;20194;-72
2021/12/02 01:44:40;;;;;;;1.30;1.30;;;;;;;;;;5031822;28;20210;-72
2021/12/02 01:47:10;;;;;;;2.63;1.65;;;;;;;;;;5031800;28;20284;-72
2021/12/02 01:49:39;;;;;;;2.03;1.92;;;;;;;;;;5031874;28;20147;-72
2021/12/02 01:52:09;;;;;;;2.95;1.90;;;;;;;;;;5031741;28;20173;-72
2021/12/02 01:54:37;;;;;;;1.75;1.65;;;;;;;;;;5031686;28;20163;-72
2021/12/02 01:57:07;;;;;;;1.70;1.60;;;;;;;;;;5031797;28;20182;-72
2021/12/02 01:59:35;;;;;;;3.13;1.52;;;;;;;;;;5033393;28;20159;-72
2021/12/02 02:02:02;;;;;;;1.67;1.58;;;;;;;;;;5035591;28;20682;-72
2021/12/02 02:04:27;;;;;;;4.63;1.88;;;;;;;;;;5035652;28;20177;-72
2021/12/02 02:06:59;;;;;;;2.60;1.73;;;;;;;;;;5035623;28;20167;-72
2021/12/02 02:09:26;;;;;;;1.67;1.58;;;;;;;;;;5035576;28;20674;-72
2021/12/02 02:11:51;;;;;;;3.45;1.85;;;;;;;;;;5035615;28;20628;-72
2021/12/02 02:14:17;;;;;;;4.00;2.50;;;;;;;;;;5035416;28;20186;-72
2021/12/02 02:16:42;;;;;;;3.33;2.38;;;;;;;;;;5035398;28;20655;-72
2021/12/02 02:19:11;;;;;;;4.50;2.72;;;;;;;;;;5035603;28;20265;-72
2021/12/02 02:21:37;;;;;;;3.35;2.10;;;;;;;;;;5035543;28;20162;-72
2021/12/02 02:24:03;;;;;;;11.07;4.43;;;;;;;;;;5035443;28;20210;-72
2021/12/02 02:26:34;;;;;;;23.63;8.70;;;;;;;;;;5035264;28;20656;-72
2021/12/02 02:28:59;;;;;;;10.60;5.05;;;;;;;;;;5035502;28;20159;-72
2021/12/02 02:31:27;;;;;;;7.90;3.35;;;;;;;;;;5035038;28;20173;-72
2021/12/02 02:33:53;;;;;;;3.85;2.90;;;;;;;;;;5035380;28;20227;-72
2021/12/02 02:36:19;;;;;;;5.95;3.92;;;;;;;;;;5035026;28;20174;-72
2021/12/02 02:38:54;;;;;;;6.35;3.33;;;;;;;;;;5035284;28;20174;-72
2021/12/02 02:41:22;;;;;;;2.35;2.17;;;;;;;;;;5035282;28;20162;-72
2021/12/02 02:43:48;;;;;;;3.47;2.75;;;;;;;;;;5034717;28;20571;-72
2021/12/02 02:46:21;;;;;;;4.10;3.80;;;;;;;;;;5035123;28;20532;-72
2021/12/02 02:48:46;;;;;;;6.68;5.13;;;;;;;;;;5034776;28;20174;-72
2021/12/02 02:51:11;;;;;;;8.15;4.82;;;;;;;;;;5034764;28;20232;-72
2021/12/02 02:53:37;;;;;;;2.88;2.38;;;;;;;;;;5034775;28;20554;-72
2021/12/02 03:01:34;;;;;;;1.50;1.40;;;;;;;;;;5034944;28;20162;-72
2021/12/02 03:09:09;;;;;;;1.20;1.20;;;;;;;;;;5034484;28;20171;-72
2021/12/02 03:17:19;;;;;;;1.20;1.20;;;;;;;;;;5026270;28;20273;-72
2021/12/02 03:19:45;;;;;;;1.27;1.23;;;;;;;;;;5034254;28;20619;-72
2021/12/02 03:22:11;;;;;;;1.58;1.48;;;;;;;;;;5034144;28;20260;-72
2021/12/02 03:24:37;;;;;;;1.33;1.30;;;;;;;;;;5034416;28;20535;-72
2021/12/02 03:27:02;;;;;;;1.60;1.50;;;;;;;;;;5034090;28;20186;-72
2021/12/02 03:29:28;;;;;;;1.40;1.30;;;;;;;;;;5034348;28;20178;-72
2021/12/02 03:31:53;;;;;;;1.42;1.33;;;;;;;;;;5034058;28;20754;-72
2021/12/02 03:34:18;;;;;;;1.35;1.20;;;;;;;;;;5034013;28;20687;-72
2021/12/02 03:36:44;;;;;;;1.40;1.30;;;;;;;;;;5033988;28;20166;-72
2021/12/02 03:39:10;;;;;;;2.08;1.23;;;;;;;;;;5034185;28;20570;-72
2021/12/02 03:41:36;;;;;;;1.23;1.10;;;;;;;;;;5032624;28;20177;-72
2021/12/02 03:44:01;;;;;;;1.20;1.00;;;;;;;;;;5033732;28;20190;-72
2021/12/02 03:46:26;;;;;;;1.05;1.05;;;;;;;;;;5032512;28;20171;-72
2021/12/02 03:48:53;;;;;;;0.82;0.82;;;;;;;;;;5034031;28;20232;-72
2021/12/02 03:51:18;;;;;;;1.23;1.20;;;;;;;;;;5033691;28;20167;-72
2021/12/02 03:53:44;;;;;;;1.00;1.00;;;;;;;;;;5033674;28;20277;-72
2021/12/02 03:56:09;;;;;;;1.67;1.10;;;;;;;;;;5033818;28;20182;-72
2021/12/02 03:58:35;;;;;;;1.17;1.17;;;;;;;;;;5033596;28;20177;-72
2021/12/02 04:01:01;;;;;;;1.40;1.30;;;;;;;;;;5033764;28;20244;-72
2021/12/02 04:03:26;;;;;;;1.10;1.10;;;;;;;;;;5033349;28;20675;-72
2021/12/02 04:05:51;;;;;;;1.52;1.42;;;;;;;;;;5033370;28;20170;-72
2021/12/02 04:08:17;;;;;;;1.58;1.48;;;;;;;;;;5033297;28;20224;-72
2021/12/02 04:10:43;;;;;;;2.65;1.58;;;;;;;;;;5033518;28;20678;-72
2021/12/02 04:13:20;;;;;;;1.10;1.10;;;;;;;;;;5033977;28;20178;-72
2021/12/02 04:15:50;;;;;;;1.00;1.00;;;;;;;;;;5033142;28;20202;-72
2021/12/02 04:18:16;;;;;;;1.75;1.30;;;;;;;;;;5033449;28;20147;-72
2021/12/02 04:20:41;;;;;;;1.13;1.13;;;;;;;;;;5033321;28;20179;-71
2021/12/02 04:23:07;;;;;;;1.40;1.30;;;;;;;;;;5032019;28;20263;-71
2021/12/02 04:25:32;;;;;;;3.20;1.30;;;;;;;;;;5033263;28;20174;-71
2021/12/02 04:27:57;;;;;;;1.20;1.10;;;;;;;;;;5032969;28;20169;-71
2021/12/02 04:30:24;;;;;;;1.20;1.20;;;;;;;;;;5033173;28;20163;-72
2021/12/02 04:32:49;;;;;;;1.08;1.00;;;;;;;;;;5032700;28;20201;-71
2021/12/02 04:35:15;;;;;;;1.13;1.00;;;;;;;;;;5033059;28;20559;-71
2021/12/02 04:37:40;;;;;;;1.20;1.20;;;;;;;;;;5033001;28;20170;-71
2021/12/02 04:40:06;;;;;;;1.25;1.25;;;;;;;;;;5033010;28;20178;-71
2021/12/02 04:42:31;;;;;;;1.23;1.15;;;;;;;;;;5032592;28;20197;-71
2021/12/02 04:44:56;;;;;;;1.50;1.40;;;;;;;;;;5032654;28;20173;-71
2021/12/02 04:47:22;;;;;;;4.93;1.38;;;;;;;;;;5032655;28;20574;-71
2021/12/02 04:49:47;;;;;;;1.30;1.30;;;;;;;;;;5032560;28;20171;-71
2021/12/02 04:52:13;;;;;;;1.40;1.38;;;;;;;;;;5032779;28;20171;-71
2021/12/02 04:54:38;;;;;;;1.75;1.42;;;;;;;;;;5032724;28;20205;-71
2021/12/02 04:57:03;;;;;;;1.33;1.23;;;;;;;;;;5032389;28;20655;-71
2021/12/02 04:59:28;;;;;;;1.00;1.00;;;;;;;;;;5032544;28;20170;-71
2021/12/02 05:01:54;;;;;;;1.05;1.05;;;;;;;;;;5032519;28;20176;-71
2021/12/02 05:04:19;;;;;;;1.13;1.13;;;;;;;;;;5032330;28;20166;-71
2021/12/02 05:06:44;;;;;;;1.40;1.30;;;;;;;;;;5032271;28;20170;-71
2021/12/02 05:09:09;;;;;;;1.55;1.45;;;;;;;;;;5032396;28;20250;-71
2021/12/02 05:11:35;;;;;;;1.50;1.40;;;;;;;;;;5032261;28;20633;-71
2021/12/02 05:14:00;;;;;;;1.15;1.15;;;;;;;;;;5032214;28;20189;-71
2021/12/02 05:16:26;;;;;;;1.20;1.20;;;;;;;;;;5032230;28;20174;-71
2021/12/02 05:18:51;;;;;;;2.58;1.23;;;;;;;;;;5032090;28;20178;-71
2021/12/02 05:21:16;;;;;;;1.33;1.23;;;;;;;;;;5032217;28;20203;-71
2021/12/02 05:23:42;;;;;;;2.25;1.10;;;;;;;;;;5032241;28;20201;-71
2021/12/02 05:26:07;;;;;;;1.42;1.10;;;;;;;;;;5032268;28;20640;-71
2021/12/02 05:28:33;;;;;;;1.30;1.20;;;;;;;;;;5032290;28;20174;-71
2021/12/02 05:30:58;;;;;;;0.90;0.90;;;;;;;;;;5031879;28;20253;-71
2021/12/02 05:33:23;;;;;;;1.17;1.17;;;;;;;;;;5031601;28;20229;-71
2021/12/02 05:35:48;;;;;;;1.00;1.00;;;;;;;;;;5031889;28;20178;-71
2021/12/02 05:38:14;;;;;;;2.42;1.38;;;;;;;;;;5032083;28;20253;-71
2021/12/02 05:40:39;;;;;;;1.13;1.13;;;;;;;;;;5031929;28;20166;-71
2021/12/02 05:43:04;;;;;;;1.50;1.40;;;;;;;;;;5031723;28;20618;-71
2021/12/02 05:45:30;;;;;;;1.35;1.33;;;;;;;;;;5031840;28;20171;-71
2021/12/02 05:47:55;;;;;;;3.08;2.00;;;;;;;;;;5031773;28;20177;-71
2021/12/02 05:50:20;;;;;;;2.08;1.90;;;;;;;;;;5031779;28;20177;-71
2021/12/02 05:52:45;;;;;;;1.95;1.70;;;;;;;;;;5031961;28;20578;-71
2021/12/02 05:55:11;;;;;;;1.20;1.20;;;;;;;;;;5031986;28;20268;-71
2021/12/02 05:57:36;;;;;;;1.25;1.25;;;;;;;;;;5031752;28;20178;-71
2021/12/02 06:00:02;;;;;;;1.08;1.08;;;;;;;;;;5031742;28;20412;-71
2021/12/02 06:02:28;;;;;;;1.20;1.20;;;;;;;;;;5031672;28;20202;-71
2021/12/02 06:04:53;;;;;;;1.50;1.40;;;;;;;;;;5031653;28;20175;-71
2021/12/02 06:07:19;;;;;;;1.50;1.40;;;;;;;;;;5031606;28;20195;-71
2021/12/02 06:09:44;;;;;;;2.08;1.80;;;;;;;;;;5031880;28;20170;-71
2021/12/02 06:12:10;;;;;;;1.60;1.50;;;;;;;;;;5031644;28;20181;-70
2021/12/02 06:14:35;;;;;;;1.90;1.80;;;;;;;;;;5031564;28;20190;-71
2021/12/02 06:17:00;;;;;;;1.70;1.60;;;;;;;;;;5031515;28;20179;-71
2021/12/02 06:19:26;;;;;;;1.60;1.50;;;;;;;;;;5031379;28;20224;-71
2021/12/02 06:21:51;;;;;;;1.80;1.70;;;;;;;;;;5031536;28;20546;-71
2021/12/02 06:24:17;;;;;;;2.33;2.00;;;;;;;;;;5031408;28;20292;-71
2021/12/02 06:26:42;;;;;;;1.70;1.60;;;;;;;;;;5031414;28;20201;-71
2021/12/02 06:29:07;;;;;;;1.70;1.60;;;;;;;;;;5031732;28;20183;-71
2021/12/02 06:31:32;;;;;;;1.90;1.80;;;;;;;;;;5031250;28;20697;-72
2021/12/02 06:34:00;;;;;;;1.80;1.70;;;;;;;;;;5031429;28;20173;-72
2021/12/02 06:36:25;;;;;;;1.23;1.23;;;;;;;;;;5031689;28;20188;-72
2021/12/02 06:38:51;;;;;;;1.40;1.40;;;;;;;;;;5031682;28;20257;-71
2021/12/02 06:41:18;;;;;;;1.70;1.60;;;;;;;;;;5031362;28;20224;-71
2021/12/02 06:43:43;;;;;;;1.60;1.60;;;;;;;;;;5031456;28;20210;-71
2021/12/02 06:46:08;;;;;;;2.20;1.80;;;;;;;;;;5034034;28;20257;-72
2021/12/02 06:48:34;;;;;;;12.45;5.97;;;;;;;;;;5034924;28;20167;-70
2021/12/02 06:50:59;;;;;;;19.38;11.57;;;;;;;;;;5035053;28;20176;-70
2021/12/02 06:53:24;;;;;;;19.73;12.80;;;;;;;;;;5034743;28;20686;-71
2021/12/02 06:55:49;;;;;;;13.60;7.85;;;;;;;;;;5034985;28;20182;-72
2021/12/02 06:58:15;;;;;;;1.95;1.85;;;;;;;;;;5034702;28;20280;-72
2021/12/02 07:00:40;;;;;;;2.80;2.05;;;;;;;;;;5034983;28;20170;-72
2021/12/02 07:03:05;;;;;;;4.88;3.83;;;;;;;;;;5034730;28;20194;-71
2021/12/02 07:05:32;;;;;;;15.18;9.93;;;;;;;;;;5034538;28;20266;-71
2021/12/02 07:07:58;;;;;;;33.42;22.58;;;;;;;;;;5034480;28;20224;-73
2021/12/02 07:10:25;;;;;;;38.00;23.38;;;;;;;;;;5033238;28;20174;-71
2021/12/02 07:12:57;;;;;;;30.65;18.42;;;;;;;;;;5034437;28;20591;-71
2021/12/02 07:15:31;;;;;;;36.15;20.50;;;;;;;;;;5034483;28;20557;-71
2021/12/02 07:17:59;;;;;;;38.75;19.58;;;;;;;;;;5034538;28;20603;-71
2021/12/02 07:20:29;;;;;;;38.08;21.83;;;;;;;;;;5034037;28;20648;-71
2021/12/02 07:22:55;;;;;;;37.05;22.27;;;;;;;;;;5033964;28;20186;-71
2021/12/02 07:25:20;;;;;;;25.02;14.57;;;;;;;;;;5034176;28;20602;-71
2021/12/02 07:27:47;;;;;;;27.42;16.05;;;;;;;;;;5034116;28;20166;-71
2021/12/02 07:30:12;;;;;;;11.85;7.78;;;;;;;;;;5034069;28;20724;-72
2021/12/02 07:32:40;;;;;;;4.57;4.00;;;;;;;;;;5033960;28;20269;-70
2021/12/02 07:35:15;;;;;;;6.75;5.30;;;;;;;;;;5033998;28;20717;-70
2021/12/02 07:37:45;;;;;;;7.03;5.25;;;;;;;;;;5034292;28;20158;-71
2021/12/02 07:40:10;;;;;;;5.32;4.07;;;;;;;;;;5033878;28;20166;-71
2021/12/02 07:42:36;;;;;;;2.80;2.60;;;;;;;;;;5033787;28;20251;-70
2021/12/02 07:45:03;;;;;;;2.83;2.60;;;;;;;;;;5033735;28;20166;-70
2021/12/02 07:47:28;;;;;;;2.08;1.95;;;;;;;;;;5033750;28;20224;-71
2021/12/02 07:49:53;;;;;;;2.53;1.73;;;;;;;;;;5033718;28;20167;-71
2021/12/02 07:52:20;;;;;;;2.17;1.98;;;;;;;;;;5033875;28;20515;-71
2021/12/02 07:54:46;;;;;;;3.00;2.05;;;;;;;;;;5033623;28;20174;-71
2021/12/02 07:57:13;;;;;;;2.60;2.20;;;;;;;;;;5033415;28;20755;-71
2021/12/02 07:59:39;;;;;;;22.80;13.77;;;;;;;;;;5033502;28;20260;-71
2021/12/02 08:02:05;;;;;;;29.42;15.60;;;;;;;;;;5033778;28;20257;-71
2021/12/02 08:04:30;;;;;;;27.95;15.25;;;;;;;;;;5033430;28;20712;-71
2021/12/02 08:06:55;;;;;;;19.20;12.50;;;;;;;;;;5033421;28;20171;-71
2021/12/02 08:09:20;;;;;;;19.48;11.75;;;;;;;;;;5033340;28;20622;-71
2021/12/02 08:11:46;;;;;;;22.05;13.15;;;;;;;;;;5033491;28;20288;-71
2021/12/02 08:14:15;;;;;;;30.35;17.17;;;;;;;;;;5033544;28;20198;-71
2021/12/02 08:16:40;;;;;;;33.85;15.18;;;;;;;;;;5033128;28;20272;-71
2021/12/02 08:19:05;;;;;;;22.63;12.68;;;;;;;;;;5033405;28;20261;-71
2021/12/02 08:21:31;;;;;;;22.25;11.63;;;;;;;;;;5033106;28;20186;-71
2021/12/02 08:23:56;;;;;;;24.00;13.20;;;;;;;;;;5033006;28;20194;-72
2021/12/02 08:26:21;;;;;;;28.65;14.43;;;;;;;;;;5033120;28;20206;-71
2021/12/02 08:28:47;;;;;;;27.73;15.10;;;;;;;;;;5033210;28;20178;-70
2021/12/02 08:31:12;;;;;;;23.92;13.20;;;;;;;;;;5032821;28;20656;-71
2021/12/02 08:33:38;;;;;;;24.50;14.05;;;;;;;;;;5033111;28;20182;-71
2021/12/02 08:36:03;;;;;;;27.92;13.57;;;;;;;;;;5032837;28;20171;-71
2021/12/02 08:38:32;;;;;;;19.48;12.68;;;;;;;;;;5032778;28;20178;-71
2021/12/02 08:40:59;;;;;;;21.90;12.50;;;;;;;;;;5032892;28;20171;-71
2021/12/02 08:43:25;;;;;;;22.73;12.63;;;;;;;;;;5032544;28;20198;-71
2021/12/02 08:45:50;;;;;;;22.95;11.88;;;;;;;;;;5032688;28;20174;-72
2021/12/02 08:48:16;;;;;;;28.23;13.18;;;;;;;;;;5032847;28;20253;-72
2021/12/02 08:50:41;;;;;;;21.13;13.23;;;;;;;;;;5032511;28;20710;-72
2021/12/02 08:53:07;;;;;;;19.83;12.75;;;;;;;;;;5032765;28;20205;-71
2021/12/02 08:55:33;;;;;;;20.85;11.93;;;;;;;;;;5032344;28;20652;-72
2021/12/02 08:57:59;;;;;;;25.80;14.98;;;;;;;;;;5032419;28;20180;-71
2021/12/02 09:00:27;;;;;;;26.42;14.32;;;;;;;;;;5032355;28;20594;-71
2021/12/02 09:02:55;;;;;;;25.67;14.48;;;;;;;;;;5032592;28;20190;-71
2021/12/02 09:05:20;;;;;;;24.50;13.93;;;;;;;;;;5032351;28;20181;-72
2021/12/02 09:07:46;;;;;;;26.90;13.82;;;;;;;;;;5031790;28;20724;-71
2021/12/02 09:10:11;;;;;;;20.67;13.20;;;;;;;;;;5032269;28;20163;-72
2021/12/02 09:12:37;;;;;;;23.52;14.30;;;;;;;;;;5032499;28;20189;-72
2021/12/02 09:15:03;;;;;;;21.88;13.43;;;;;;;;;;5032393;28;20841;-72
2021/12/02 09:17:28;;;;;;;19.40;12.75;;;;;;;;;;5032457;28;20558;-71
2021/12/02 09:19:53;;;;;;;27.15;12.90;;;;;;;;;;5032119;28;20170;-71
2021/12/02 09:22:19;;;;;;;20.83;13.25;;;;;;;;;;5032003;28;20174;-72
2021/12/02 09:24:44;;;;;;;26.10;14.13;;;;;;;;;;5032267;28;20175;-72
2021/12/02 09:27:09;;;;;;;20.73;14.10;;;;;;;;;;5032358;28;20181;-71
2021/12/02 09:29:35;;;;;;;26.52;13.85;;;;;;;;;;5031898;28;20200;-72
2021/12/02 09:32:01;;;;;;;24.13;13.80;;;;;;;;;;5031914;28;20676;-72
2021/12/02 09:34:26;;;;;;;22.60;13.98;;;;;;;;;;5031928;28;20598;-72
2021/12/02 09:36:52;;;;;;;22.10;13.35;;;;;;;;;;5032072;28;20232;-72
2021/12/02 09:39:17;;;;;;;21.98;14.15;;;;;;;;;;5031906;28;20674;-72
2021/12/02 09:41:44;;;;;;;26.30;13.90;;;;;;;;;;5031887;28;20721;-72
2021/12/02 09:44:09;;;;;;;25.45;15.75;;;;;;;;;;5031773;28;20198;-72
2021/12/02 09:46:35;;;;;;;30.95;14.68;;;;;;;;;;5031841;28;20624;-71
2021/12/02 09:49:03;;;;;;;17.00;12.07;;;;;;;;;;5031854;28;20166;-72
2021/12/02 09:52:16;;;;;;;20.60;12.80;;;;;;;;;;5031756;28;20174;-72
2021/12/02 09:54:21;;;;;;;22.48;12.80;;;;;;;;;;5024384;28;20193;-72
2021/12/02 09:56:49;;;;;;;19.70;11.38;;;;;;;;;;5031689;28;20193;-72
2021/12/02 10:01:52;;;;;;;18.70;14.15;;;;;;;;;;5032554;28;20159;-72
2021/12/02 10:04:20;;;;;;;18.17;11.73;;;;;;;;;;5031916;28;20205;-71
2021/12/02 10:06:46;;;;;;;22.10;11.80;;;;;;;;;;5031903;28;20256;-71
2021/12/02 10:09:15;;;;;;;20.05;12.77;;;;;;;;;;5031687;28;20220;-71
2021/12/02 10:11:58;;;;;;;15.35;9.88;;;;;;;;;;5032052;28;20173;-72
2021/12/02 10:14:30;;;;;;;14.50;8.85;;;;;;;;;;5031577;28;20592;-72
2021/12/02 10:17:15;;;;;;;23.08;11.57;;;;;;;;;;5031620;28;20249;-72
2021/12/02 10:19:59;;;;;;;24.45;9.82;;;;;;;;;;5031771;28;20170;-72
2021/12/02 10:22:24;;;;;;;15.63;8.77;;;;;;;;;;5035290;28;20170;-72
2021/12/02 10:24:50;;;;;;;15.18;7.68;;;;;;;;;;5035250;28;20607;-72
2021/12/02 10:27:15;;;;;;;12.48;8.52;;;;;;;;;;5035477;28;20178;-72
2021/12/02 10:29:42;;;;;;;9.57;6.93;;;;;;;;;;5035223;28;20167;-71
2021/12/02 10:32:12;;;;;;;7.20;5.40;;;;;;;;;;5035205;28;20186;-71
2021/12/02 10:34:50;;;;;;;11.18;5.97;;;;;;;;;;5035150;28;20641;-73
2021/12/02 10:37:19;;;;;;;6.15;5.03;;;;;;;;;;5035374;28;20193;-72
2021/12/02 10:40:02;;;;;;;7.07;5.15;;;;;;;;;;5035296;28;20175;-71
2021/12/02 10:42:28;;;;;;;8.23;5.20;;;;;;;;;;5033670;28;20202;-72
2021/12/02 10:44:54;;;;;;;7.50;4.78;;;;;;;;;;5034923;28;20202;-72
2021/12/02 10:47:21;;;;;;;27.48;11.82;;;;;;;;;;5034887;28;20167;-71
2021/12/02 10:49:49;;;;;;;10.98;5.80;;;;;;;;;;5034755;28;20572;-71
2021/12/02 10:52:21;;;;;;;6.03;4.13;;;;;;;;;;5034793;28;20228;-71
2021/12/02 10:54:49;;;;;;;7.47;5.18;;;;;;;;;;5035041;28;20186;-71
2021/12/02 10:57:19;;;;;;;9.57;4.20;;;;;;;;;;5034616;28;20628;-71
2021/12/02 10:59:49;;;;;;;23.13;15.63;;;;;;;;;;5035174;28;20182;-72
2021/12/02 11:02:17;;;;;;;9.90;5.75;;;;;;;;;;5034549;28;20177;-72
2021/12/02 11:04:47;;;;;;;10.45;5.63;;;;;;;;;;5034699;28;20240;-71
2021/12/02 11:07:19;;;;;;;14.60;7.30;;;;;;;;;;5034824;28;20236;-71
2021/12/02 11:09:45;;;;;;;9.73;7.60;;;;;;;;;;5034473;28;20167;-71
2021/12/02 11:12:11;;;;;;;13.82;6.85;;;;;;;;;;5034683;28;20178;-71
2021/12/02 11:14:38;;;;;;;9.90;4.78;;;;;;;;;;5034590;28;20552;-71
2021/12/02 11:17:11;;;;;;;7.88;4.75;;;;;;;;;;5034673;28;20546;-71
2021/12/02 11:19:36;;;;;;;15.30;9.65;;;;;;;;;;5032975;28;20281;-72
2021/12/02 11:22:06;;;;;;;15.65;11.80;;;;;;;;;;5034433;28;20212;-72
2021/12/02 11:24:32;;;;;;;6.22;4.68;;;;;;;;;;5034243;28;20261;-72
2021/12/02 11:27:12;;;;;;;7.63;4.60;;;;;;;;;;5034190;28;20223;-72
2021/12/02 11:29:47;;;;;;;7.85;4.45;;;;;;;;;;5034179;28;20640;-72
2021/12/02 11:32:26;;;;;;;7.97;5.07;;;;;;;;;;5033523;28;20192;-71
2021/12/02 11:35:06;;;;;;;10.65;5.13;;;;;;;;;;5034070;28;20171;-71
2021/12/02 11:37:32;;;;;;;9.65;5.05;;;;;;;;;;5032745;28;20567;-71
2021/12/02 11:39:59;;;;;;;7.72;4.30;;;;;;;;;;5033874;28;20174;-72
2021/12/02 11:42:25;;;;;;;5.63;4.47;;;;;;;;;;5033767;28;20182;-72
2021/12/02 11:44:50;;;;;;;6.05;3.80;;;;;;;;;;5033782;28;20167;-72
2021/12/02 11:47:16;;;;;;;5.28;4.25;;;;;;;;;;5033781;28;20163;-72
2021/12/02 11:49:41;;;;;;;7.40;5.00;;;;;;;;;;5033971;28;20170;-72
2021/12/02 11:52:08;;;;;;;6.07;4.43;;;;;;;;;;5033675;28;20616;-72
2021/12/02 11:54:33;;;;;;;8.23;4.45;;;;;;;;;;5033585;28;20209;-72
2021/12/02 11:56:58;;;;;;;7.32;4.00;;;;;;;;;;5033632;28;20179;-72
2021/12/02 11:59:24;;;;;;;5.30;4.03;;;;;;;;;;5033586;28;20670;-72
2021/12/02 12:01:59;;;;;;;9.30;4.47;;;;;;;;;;5033485;28;20241;-72
2021/12/02 12:04:25;;;;;;;7.68;4.40;;;;;;;;;;5032118;28;20570;-72
2021/12/02 12:07:05;;;;;;;6.68;4.38;;;;;;;;;;5032155;28;20167;-71
2021/12/02 12:09:30;;;;;;;7.60;4.47;;;;;;;;;;5033428;28;20159;-71
2021/12/02 12:11:56;;;;;;;8.20;3.65;;;;;;;;;;5033306;28;20173;-71
2021/12/02 12:14:40;;;;;;;6.93;4.35;;;;;;;;;;5033213;28;20707;-72
2021/12/02 12:17:08;;;;;;;8.63;4.93;;;;;;;;;;5033148;28;20640;-71
2021/12/02 12:19:41;;;;;;;5.65;4.35;;;;;;;;;;5033100;28;20181;-71
2021/12/02 12:22:11;;;;;;;10.65;4.53;;;;;;;;;;5048718;28;20556;-72
2021/12/02 12:24:47;;;;;;;11.82;4.40;;;;;;;;;;5031825;28;20236;-72
2021/12/02 12:27:18;;;;;;;5.53;4.05;;;;;;;;;;5033022;28;20180;-72
2021/12/02 12:29:45;;;;;;;4.75;4.00;;;;;;;;;;5032958;28;20239;-72
2021/12/02 12:32:16;;;;;;;6.72;4.10;;;;;;;;;;5032705;28;20251;-71
2021/12/02 12:38:02;;;;;;;8.00;4.57;;;;;;;;;;5033252;28;20642;-71
2021/12/02 12:40:07;;;;;;;10.10;4.88;;;;;;;;;;5028763;28;20190;-72
2021/12/02 12:42:33;;;;;;;5.80;4.20;;;;;;;;;;5031886;28;20198;-72
2021/12/02 12:44:59;;;;;;;6.60;4.07;;;;;;;;;;5032703;28;20167;-71
2021/12/02 12:47:39;;;;;;;6.20;4.82;;;;;;;;;;5032691;28;20273;-72
2021/12/02 12:50:20;;;;;;;8.23;3.72;;;;;;;;;;5032501;28;20607;-71
2021/12/02 12:52:45;;;;;;;6.90;3.85;;;;;;;;;;5032783;28;20629;-71
2021/12/02 12:55:15;;;;;;;4.45;3.67;;;;;;;;;;5032784;28;20174;-72
2021/12/02 12:57:59;;;;;;;4.55;3.85;;;;;;;;;;5032839;28;20183;-72
2021/12/02 13:00:37;;;;;;;7.90;3.78;;;;;;;;;;5032948;28;20195;-71
2021/12/02 13:03:17;;;;;;;6.00;4.25;;;;;;;;;;5031050;28;20198;-72
2021/12/02 13:05:59;;;;;;;5.70;3.95;;;;;;;;;;5032729;28;20344;-72
2021/12/02 13:08:26;;;;;;;5.20;3.53;;;;;;;;;;5032616;28;20640;-70
2021/12/02 13:10:55;;;;;;;12.15;5.10;;;;;;;;;;5032302;28;20762;-72
2021/12/02 13:13:26;;;;;;;13.23;4.22;;;;;;;;;;5032532;28;20606;-71
2021/12/02 13:15:51;;;;;;;8.35;4.22;;;;;;;;;;5032412;28;20205;-71
2021/12/02 13:18:33;;;;;;;7.13;4.75;;;;;;;;;;5032429;28;20560;-71
2021/12/02 13:21:17;;;;;;;5.13;3.67;;;;;;;;;;5030886;28;20178;-70
2021/12/02 13:23:52;;;;;;;8.77;3.75;;;;;;;;;;5032006;28;20193;-71
2021/12/02 13:26:18;;;;;;;6.68;5.47;;;;;;;;;;5032263;28;20256;-72
2021/12/02 13:28:44;;;;;;;7.57;4.93;;;;;;;;;;5032289;28;20209;-72
2021/12/02 13:31:11;;;;;;;5.72;4.22;;;;;;;;;;5031991;28;20194;-71
2021/12/02 13:34:03;;;;;;;5.53;4.45;;;;;;;;;;5031972;28;20253;-71
2021/12/02 13:36:31;;;;;;;7.57;4.30;;;;;;;;;;5032736;28;20190;-71
2021/12/02 13:39:07;;;;;;;6.95;4.60;;;;;;;;;;5031909;28;20228;-72
2021/12/02 13:41:41;;;;;;;5.50;4.57;;;;;;;;;;5031917;28;20530;-72
2021/12/02 13:44:10;;;;;;;10.10;5.30;;;;;;;;;;5032061;28;20257;-72
2021/12/02 13:46:37;;;;;;;15.20;10.18;;;;;;;;;;5032129;28;20248;-72
2021/12/02 13:49:04;;;;;;;10.85;6.78;;;;;;;;;;5031791;28;20163;-72
2021/12/02 13:54:34;;;;;;;10.68;6.80;;;;;;;;;;5033802;28;20248;-72
2021/12/02 13:57:00;;;;;;;13.43;7.43;;;;;;;;;;5036182;28;20186;-72
2021/12/02 13:59:36;;;;;;;10.60;6.60;;;;;;;;;;5035814;28;20194;-72
2021/12/02 14:02:02;;;;;;;11.90;6.30;;;;;;;;;;5035704;28;20159;-72
2021/12/02 14:04:28;;;;;;;10.23;6.35;;;;;;;;;;5035903;28;20687;-72
2021/12/02 14:07:13;;;;;;;7.38;6.43;;;;;;;;;;5035666;28;20177;-71
2021/12/02 14:09:45;;;;;;;7.63;5.63;;;;;;;;;;5035807;28;20696;-71
2021/12/02 14:12:11;;;;;;;12.35;6.22;;;;;;;;;;5035762;28;20190;-71
2021/12/02 14:14:36;;;;;;;6.70;6.00;;;;;;;;;;5035550;28;20221;-71
2021/12/02 14:17:05;;;;;;;13.95;8.38;;;;;;;;;;5035446;28;20648;-72
2021/12/02 14:19:30;;;;;;;16.98;8.82;;;;;;;;;;5035713;28;20202;-72
2021/12/02 14:21:55;;;;;;;76.82;34.33;;;;;;;;;;5035429;28;20202;-72
2021/12/02 14:24:21;;;;;;;59.28;30.13;;;;;;;;;;5035171;28;20194;-72
2021/12/02 14:26:46;;;;;;;62.17;28.83;;;;;;;;;;5035496;28;20163;-72
2021/12/02 14:29:13;;;;;;;51.22;24.45;;;;;;;;;;5035356;28;20170;-72
2021/12/02 14:31:38;;;;;;;47.10;22.02;;;;;;;;;;5035037;28;20182;-72
2021/12/02 14:34:09;;;;;;;46.92;23.02;;;;;;;;;;5035411;28;20532;-72
2021/12/02 14:36:41;;;;;;;37.28;20.95;;;;;;;;;;5035121;28;20166;-72
2021/12/02 14:39:07;;;;;;;92.45;42.25;;;;;;;;;;5035013;28;20721;-73
2021/12/02 14:41:33;;;;;;;57.35;28.02;;;;;;;;;;5035258;28;20178;-72
2021/12/02 14:44:00;;;;;;;65.25;30.67;;;;;;;;;;5034824;28;20186;-72
2021/12/02 14:46:31;;;;;;;63.25;29.75;;;;;;;;;;5035150;28;20174;-72
2021/12/02 14:49:01;;;;;;;80.68;39.20;;;;;;;;;;5035337;28;20178;-71
2021/12/02 14:51:26;;;;;;;69.30;32.72;;;;;;;;;;5035085;28;20551;-72
2021/12/02 14:53:55;;;;;;;89.07;44.25;;;;;;;;;;5034933;28;20174;-72
2021/12/02 14:56:21;;;;;;;56.00;30.45;;;;;;;;;;5034915;28;20174;-71
2021/12/02 14:59:07;;;;;;;166.57;79.32;;;;;;;;;;5034672;28;20647;-72
2021/12/02 15:01:32;;;;;;;126.43;56.28;;;;;;;;;;5034379;28;20273;-71
2021/12/02 15:03:57;;;;;;;41.10;22.15;;;;;;;;;;5034541;28;20266;-72
2021/12/02 15:06:36;;;;;;;77.53;40.38;;;;;;;;;;5033760;28;20556;-72
2021/12/02 15:09:01;;;;;;;235.23;99.53;;;;;;;;;;5034743;28;20551;-71